Derry, United Kingdom
Current Conditions -  °F | °C
As of 3:20 PM on Thursday 29 Jan 2015 (Local Time) from EGAE Reporting Station
Rain Showers Rain Showers  
Wind Chill: 24°   Ceiling: 2200
Heat Index: 36°   Visibility: 6mi
Dew Point: 34°   Wind: 23mph
Humidity: 93%   Direction: 300°WNW
Pressure: 28.88"   Gusts: NA
Location:  55°N, 7.31°W
Report Text: EGAE 291520Z 30020KT 9999 VCSH SCT015 BKN022CB 02/01 Q0978
Loading
Personal Weather Stations






























Interactive Weather Map New forecast layout! Learn more

10-Day Weather Forecast

Advertisements
Track Severe Weather on mobile